createdAt,value
2023-12-10T00:00:18.818Z,100.00
2023-12-10T00:02:45.394Z,100.00
2023-12-10T00:05:11.915Z,100.00
2023-12-10T00:07:38.428Z,100.00
2023-12-10T00:10:05.307Z,100.00
2023-12-10T00:12:32.137Z,100.00
2023-12-10T00:14:59.032Z,100.00
2023-12-10T00:17:25.530Z,100.00
2023-12-10T00:19:53.167Z,100.00
2023-12-10T00:22:20.048Z,100.00
2023-12-10T00:24:46.627Z,100.00
2023-12-10T00:27:13.423Z,100.00
2023-12-10T00:29:40.269Z,100.00
2023-12-10T00:32:06.895Z,100.00
2023-12-10T00:34:33.467Z,100.00
2023-12-10T00:37:00.012Z,100.00
2023-12-10T00:39:26.590Z,100.00
2023-12-10T00:41:53.174Z,100.00
2023-12-10T00:44:19.671Z,100.00
2023-12-10T00:46:46.141Z,100.00
2023-12-10T00:49:12.803Z,100.00
2023-12-10T00:51:39.481Z,100.00
2023-12-10T00:54:08.866Z,100.00
2023-12-10T00:56:35.649Z,100.00
2023-12-10T00:59:02.237Z,100.00
2023-12-10T01:01:28.957Z,100.00
2023-12-10T01:03:55.811Z,100.00
2023-12-10T01:06:22.422Z,100.00
2023-12-10T01:08:48.931Z,100.00
2023-12-10T01:11:15.989Z,100.00
2023-12-10T01:13:42.753Z,100.00
2023-12-10T01:16:09.533Z,100.00
2023-12-10T01:18:38.640Z,100.00
2023-12-10T01:21:11.309Z,100.00
2023-12-10T01:23:38.513Z,100.00
2023-12-10T01:26:05.394Z,100.00
2023-12-10T01:28:31.950Z,100.00
2023-12-10T01:30:58.967Z,100.00
2023-12-10T01:33:25.806Z,100.00
2023-12-10T01:35:52.644Z,100.00
2023-12-10T01:38:19.719Z,100.00
2023-12-10T01:40:46.362Z,100.00
2023-12-10T01:43:13.022Z,100.00
2023-12-10T01:45:40.927Z,100.00
2023-12-10T01:48:08.901Z,100.00
2023-12-10T01:50:37.311Z,100.00
2023-12-10T01:53:04.721Z,100.00
2023-12-10T01:55:31.469Z,100.00
2023-12-10T01:57:58.426Z,100.00
2023-12-10T02:00:25.102Z,100.00
2023-12-10T02:02:51.708Z,100.00
2023-12-10T02:05:19.233Z,100.00
2023-12-10T02:07:45.884Z,100.00
2023-12-10T02:10:12.529Z,100.00
2023-12-10T02:12:40.706Z,100.00
2023-12-10T02:15:20.382Z,100.00
2023-12-10T02:17:48.136Z,100.00
2023-12-10T02:20:16.191Z,100.00
2023-12-10T02:23:04.077Z,100.00
2023-12-10T02:25:37.988Z,100.00
2023-12-10T02:28:06.054Z,100.00
2023-12-10T02:30:33.423Z,100.00
2023-12-10T02:33:00.447Z,100.00
2023-12-10T02:35:30.277Z,100.00
2023-12-10T02:37:57.006Z,100.00
2023-12-10T02:40:23.641Z,100.00
2023-12-10T02:42:50.494Z,100.00
2023-12-10T02:45:17.895Z,100.00
2023-12-10T02:47:44.797Z,100.00
2023-12-10T02:50:11.725Z,100.00
2023-12-10T02:52:38.647Z,100.00
2023-12-10T02:55:06.831Z,100.00
2023-12-10T02:57:33.464Z,100.00
2023-12-10T03:00:00.213Z,100.00
2023-12-10T03:02:27.128Z,100.00
2023-12-10T03:04:54.102Z,100.00
2023-12-10T03:07:20.626Z,100.00
2023-12-10T03:09:47.162Z,100.00
2023-12-10T03:12:13.804Z,100.00
2023-12-10T03:14:41.082Z,100.00
2023-12-10T03:17:07.548Z,100.00
2023-12-10T03:19:34.256Z,100.00
2023-12-10T03:22:00.735Z,100.00
2023-12-10T03:24:27.231Z,100.00
2023-12-10T03:26:53.857Z,100.00
2023-12-10T03:29:20.356Z,100.00
2023-12-10T03:31:46.811Z,100.00
2023-12-10T03:34:13.464Z,100.00
2023-12-10T03:36:40.124Z,100.00
2023-12-10T03:39:06.790Z,100.00
2023-12-10T03:41:33.250Z,100.00
2023-12-10T03:43:59.775Z,100.00
2023-12-10T03:46:26.266Z,100.00
2023-12-10T03:48:53.217Z,100.00
2023-12-10T03:51:19.877Z,100.00
2023-12-10T03:53:46.407Z,100.00
2023-12-10T03:56:12.900Z,100.00
2023-12-10T03:58:39.487Z,100.00
2023-12-10T04:01:06.282Z,100.00
2023-12-10T04:03:33.095Z,100.00
2023-12-10T04:06:01.458Z,100.00
2023-12-10T04:08:27.961Z,100.00
2023-12-10T04:10:54.497Z,100.00
2023-12-10T04:13:20.982Z,100.00
2023-12-10T04:15:48.200Z,100.00
2023-12-10T04:18:16.112Z,100.00
2023-12-10T04:20:43.642Z,100.00
2023-12-10T04:23:10.163Z,100.00
2023-12-10T04:25:36.627Z,100.00
2023-12-10T04:28:04.762Z,100.00
2023-12-10T04:30:32.527Z,100.00
2023-12-10T04:32:59.203Z,100.00
2023-12-10T04:35:25.858Z,100.00
2023-12-10T04:37:52.367Z,100.00
2023-12-10T04:40:18.933Z,100.00
2023-12-10T04:42:45.497Z,100.00
2023-12-10T04:45:12.118Z,100.00
2023-12-10T04:47:38.884Z,100.00
2023-12-10T04:50:06.154Z,100.00
2023-12-10T04:52:33.488Z,100.00
2023-12-10T04:55:00.449Z,100.00
2023-12-10T04:57:27.653Z,100.00
2023-12-10T04:59:54.241Z,100.00
2023-12-10T05:02:20.700Z,100.00
2023-12-10T05:04:47.216Z,100.00
2023-12-10T05:07:13.656Z,100.00
2023-12-10T05:09:40.225Z,100.00
2023-12-10T05:12:07.006Z,100.00
2023-12-10T05:14:33.486Z,100.00
2023-12-10T05:17:00.207Z,100.00
2023-12-10T05:19:26.861Z,100.00
2023-12-10T05:21:53.445Z,100.00
2023-12-10T05:24:20.052Z,100.00
2023-12-10T05:26:46.621Z,100.00
2023-12-10T05:29:13.113Z,100.00
2023-12-10T05:31:39.782Z,100.00
2023-12-10T05:34:06.406Z,100.00
2023-12-10T05:36:33.020Z,100.00
2023-12-10T05:38:59.546Z,100.00
2023-12-10T05:41:26.034Z,100.00
2023-12-10T05:43:52.512Z,100.00
2023-12-10T05:46:19.049Z,100.00
2023-12-10T05:48:45.680Z,100.00
2023-12-10T05:51:12.529Z,100.00
2023-12-10T05:53:39.026Z,100.00
2023-12-10T05:56:06.046Z,100.00
2023-12-10T05:58:32.538Z,100.00
2023-12-10T06:00:59.291Z,100.00
2023-12-10T06:03:26.270Z,100.00
2023-12-10T06:05:53.026Z,100.00
2023-12-10T06:08:19.677Z,100.00
2023-12-10T06:10:46.320Z,100.00
2023-12-10T06:13:12.892Z,100.00
2023-12-10T06:15:39.544Z,100.00
2023-12-10T06:18:06.329Z,100.00
2023-12-10T06:20:32.961Z,100.00
2023-12-10T06:22:59.429Z,100.00
2023-12-10T06:25:26.012Z,100.00
2023-12-10T06:27:52.676Z,100.00
2023-12-10T06:30:19.347Z,100.00
2023-12-10T06:32:46.006Z,100.00
2023-12-10T06:35:12.950Z,100.00
2023-12-10T06:37:39.582Z,100.00
2023-12-10T06:40:07.544Z,100.00
2023-12-10T06:42:35.428Z,100.00
2023-12-10T06:45:02.750Z,100.00
2023-12-10T06:47:29.466Z,100.00
2023-12-10T06:49:56.427Z,100.00
2023-12-10T06:52:22.945Z,100.00
2023-12-10T06:54:49.612Z,100.00
2023-12-10T06:57:16.226Z,100.00
2023-12-10T06:59:42.812Z,100.00
2023-12-10T07:02:09.569Z,100.00
2023-12-10T07:04:36.214Z,100.00
2023-12-10T07:07:03.389Z,100.00
2023-12-10T07:09:30.079Z,100.00
2023-12-10T07:11:56.635Z,100.00
2023-12-10T07:14:23.358Z,100.00
2023-12-10T07:16:49.948Z,100.00
2023-12-10T07:19:16.624Z,100.00
2023-12-10T07:21:43.160Z,100.00
2023-12-10T07:24:09.960Z,100.00
2023-12-10T07:26:36.516Z,100.00
2023-12-10T07:29:03.016Z,100.00
2023-12-10T07:31:31.259Z,100.00
2023-12-10T07:33:57.783Z,100.00
2023-12-10T07:36:24.391Z,100.00
2023-12-10T07:38:50.976Z,100.00
2023-12-10T07:41:17.481Z,100.00
2023-12-10T07:43:44.006Z,100.00
2023-12-10T07:46:10.503Z,100.00
2023-12-10T07:48:37.187Z,100.00
2023-12-10T07:51:03.913Z,100.00
2023-12-10T07:53:30.477Z,100.00
2023-12-10T07:55:57.006Z,100.00
2023-12-10T07:58:23.722Z,100.00
2023-12-10T08:00:51.034Z,100.00
2023-12-10T08:03:17.794Z,100.00
2023-12-10T08:05:44.510Z,100.00
2023-12-10T08:08:10.964Z,100.00
2023-12-10T08:10:37.524Z,100.00
2023-12-10T08:13:04.223Z,100.00
2023-12-10T08:15:31.021Z,100.00
2023-12-10T08:17:57.689Z,100.00
2023-12-10T08:20:24.220Z,100.00
2023-12-10T08:22:50.833Z,100.00
2023-12-10T08:25:17.470Z,100.00
2023-12-10T08:27:44.137Z,100.00
2023-12-10T08:30:11.150Z,100.00
2023-12-10T08:32:38.306Z,100.00
2023-12-10T08:35:05.535Z,100.00
2023-12-10T08:37:32.564Z,99.92
2023-12-10T08:39:59.475Z,100.00
2023-12-10T08:42:27.440Z,98.66
2023-12-10T08:44:54.228Z,94.30
2023-12-10T08:47:20.696Z,94.89
2023-12-10T08:49:47.184Z,96.39
2023-12-10T08:52:13.704Z,97.82
2023-12-10T08:54:40.322Z,98.72
2023-12-10T08:57:06.912Z,99.55
2023-12-10T08:59:33.618Z,98.95
2023-12-10T09:02:00.172Z,97.26
2023-12-10T09:04:27.008Z,95.84
2023-12-10T09:06:53.638Z,95.37
2023-12-10T09:09:21.448Z,95.03
2023-12-10T09:11:49.060Z,94.42
2023-12-10T09:14:15.591Z,94.28
2023-12-10T09:16:42.588Z,94.48
2023-12-10T09:19:09.289Z,91.08
2023-12-10T09:21:35.870Z,90.48
2023-12-10T09:24:02.415Z,96.97
2023-12-10T09:26:31.591Z,94.76
2023-12-10T09:28:58.353Z,96.25
2023-12-10T09:31:24.862Z,95.84
2023-12-10T09:33:51.537Z,96.85
2023-12-10T09:36:18.762Z,95.32
2023-12-10T09:38:45.977Z,95.83
2023-12-10T09:41:12.708Z,95.70
2023-12-10T09:43:39.498Z,97.16
2023-12-10T09:46:09.301Z,97.39
2023-12-10T09:48:37.926Z,95.18
2023-12-10T09:51:04.682Z,95.02
2023-12-10T09:53:31.260Z,94.93
2023-12-10T09:55:57.749Z,95.05
2023-12-10T09:58:24.268Z,93.78
2023-12-10T10:00:52.074Z,92.57
2023-12-10T10:03:20.912Z,93.08
2023-12-10T10:05:47.780Z,92.39
2023-12-10T10:08:15.524Z,90.82
2023-12-10T10:10:41.994Z,88.10
2023-12-10T10:13:08.878Z,89.40
2023-12-10T10:15:35.430Z,90.08
2023-12-10T10:18:02.084Z,89.52
2023-12-10T10:20:29.593Z,89.94
2023-12-10T10:22:56.116Z,90.23
2023-12-10T10:25:22.603Z,90.14
2023-12-10T10:27:52.729Z,89.56
2023-12-10T10:30:19.314Z,88.09
2023-12-10T10:32:47.569Z,84.02
2023-12-10T10:35:14.696Z,84.30
2023-12-10T10:37:43.545Z,83.42
2023-12-10T10:40:10.417Z,82.90
2023-12-10T10:42:37.049Z,81.68
2023-12-10T10:45:04.479Z,81.82
2023-12-10T10:47:33.907Z,82.61
2023-12-10T10:50:20.690Z,81.69
2023-12-10T10:52:49.937Z,82.21
2023-12-10T10:55:17.622Z,81.44
2023-12-10T10:57:44.200Z,80.06
2023-12-10T11:00:20.701Z,78.87
2023-12-10T11:02:57.849Z,78.21
2023-12-10T11:05:35.206Z,76.81
2023-12-10T11:08:05.036Z,75.28
2023-12-10T11:10:32.111Z,74.11
2023-12-10T11:13:00.598Z,74.35
2023-12-10T11:15:31.727Z,75.70
2023-12-10T11:18:03.807Z,77.56
2023-12-10T11:20:34.894Z,74.30
2023-12-10T11:23:03.806Z,75.60
2023-12-10T11:25:30.735Z,76.92
2023-12-10T11:28:00.939Z,77.25
2023-12-10T11:30:29.066Z,76.92
2023-12-10T11:32:55.954Z,76.27
2023-12-10T11:35:22.659Z,77.06
2023-12-10T11:37:49.259Z,74.72
2023-12-10T11:40:15.988Z,73.32
2023-12-10T11:42:42.545Z,74.85
2023-12-10T11:45:10.026Z,72.72
2023-12-10T11:47:36.638Z,72.91
2023-12-10T11:50:07.166Z,72.33
2023-12-10T11:52:34.294Z,71.58
2023-12-10T11:55:01.079Z,71.44
2023-12-10T11:57:27.903Z,69.38
2023-12-10T11:59:55.006Z,71.79
2023-12-10T12:02:21.542Z,72.22
2023-12-10T12:04:51.526Z,71.31
2023-12-10T12:07:26.040Z,69.08
2023-12-10T12:09:54.963Z,69.03
2023-12-10T12:12:22.606Z,70.11
2023-12-10T12:14:53.021Z,71.00
2023-12-10T12:17:20.942Z,70.22
2023-12-10T12:19:47.665Z,70.36
2023-12-10T12:22:14.668Z,69.79
2023-12-10T12:24:41.372Z,70.33
2023-12-10T12:27:08.716Z,69.58
2023-12-10T12:29:36.371Z,71.37
2023-12-10T12:32:18.668Z,71.20
2023-12-10T12:34:50.847Z,72.39
2023-12-10T12:37:17.452Z,72.16
2023-12-10T12:39:44.097Z,72.53
2023-12-10T12:42:10.616Z,71.64
2023-12-10T12:44:37.197Z,73.93
2023-12-10T12:47:04.031Z,74.31
2023-12-10T12:49:31.294Z,72.65
2023-12-10T12:51:58.075Z,74.29
2023-12-10T12:54:24.622Z,73.23
2023-12-10T12:56:52.175Z,71.47
2023-12-10T12:59:18.735Z,71.80
2023-12-10T13:01:45.806Z,71.41
2023-12-10T13:04:12.682Z,70.99
2023-12-10T13:06:39.404Z,69.72
2023-12-10T13:09:05.966Z,71.35
2023-12-10T13:11:32.601Z,71.16
2023-12-10T13:13:59.084Z,73.05
2023-12-10T13:16:25.714Z,73.15
2023-12-10T13:18:52.676Z,73.20
2023-12-10T13:21:22.031Z,74.91
2023-12-10T13:23:50.040Z,74.37
2023-12-10T13:26:16.542Z,74.75
2023-12-10T13:28:43.115Z,73.96
2023-12-10T13:31:11.448Z,75.83
2023-12-10T13:33:38.151Z,75.38
2023-12-10T13:36:05.567Z,76.72
2023-12-10T13:38:32.665Z,75.85
2023-12-10T13:40:59.161Z,75.14
2023-12-10T13:43:25.701Z,74.10
2023-12-10T13:45:52.244Z,73.91
2023-12-10T13:48:19.006Z,73.26
2023-12-10T13:50:45.513Z,74.78
2023-12-10T13:53:12.001Z,75.44
2023-12-10T13:55:38.503Z,74.78
2023-12-10T13:58:05.381Z,74.50
2023-12-10T14:00:32.545Z,75.76
2023-12-10T14:02:59.126Z,76.85
2023-12-10T14:05:25.676Z,78.01
2023-12-10T14:07:52.177Z,78.16
2023-12-10T14:10:19.183Z,77.27
2023-12-10T14:12:45.948Z,77.32
2023-12-10T14:15:12.694Z,77.29
2023-12-10T14:17:39.802Z,77.86
2023-12-10T14:20:10.029Z,78.90
2023-12-10T14:22:37.355Z,78.90
2023-12-10T14:25:04.285Z,77.93
2023-12-10T14:27:31.186Z,77.28
2023-12-10T14:29:59.101Z,78.50
2023-12-10T14:32:25.919Z,78.26
2023-12-10T14:34:52.500Z,80.03
2023-12-10T14:37:19.137Z,80.19
2023-12-10T14:39:45.811Z,80.03
2023-12-10T14:42:12.420Z,79.15
2023-12-10T14:44:39.029Z,80.25
2023-12-10T14:47:05.721Z,80.00
2023-12-10T14:49:32.311Z,81.65
2023-12-10T14:51:59.087Z,82.07
2023-12-10T14:54:26.622Z,81.20
2023-12-10T14:56:53.145Z,82.10
2023-12-10T14:59:20.257Z,81.02
2023-12-10T15:01:58.768Z,80.51
2023-12-10T15:04:32.868Z,80.50
2023-12-10T15:06:59.606Z,80.66
2023-12-10T15:09:26.194Z,81.23
2023-12-10T15:11:52.736Z,80.26
2023-12-10T15:14:19.710Z,81.26
2023-12-10T15:16:46.195Z,82.05
2023-12-10T15:19:12.851Z,81.80
2023-12-10T15:21:39.426Z,82.12
2023-12-10T15:24:06.095Z,82.70
2023-12-10T15:26:32.581Z,84.10
2023-12-10T15:28:59.377Z,84.78
2023-12-10T15:31:25.908Z,82.94
2023-12-10T15:33:52.521Z,84.32
2023-12-10T15:36:20.989Z,85.63
2023-12-10T15:38:47.506Z,85.72
2023-12-10T15:41:14.163Z,86.22
2023-12-10T15:43:40.689Z,86.47
2023-12-10T15:46:07.335Z,86.26
2023-12-10T15:48:34.831Z,87.26
2023-12-10T15:51:01.582Z,87.71
2023-12-10T15:53:28.112Z,86.03
2023-12-10T15:55:54.682Z,85.83
2023-12-10T15:58:21.210Z,86.74
2023-12-10T16:00:52.951Z,88.74
2023-12-10T16:03:23.175Z,88.19
2023-12-10T16:05:51.336Z,88.09
2023-12-10T16:08:19.134Z,88.02
2023-12-10T16:10:46.082Z,88.15
2023-12-10T16:13:16.611Z,88.34
2023-12-10T16:15:45.908Z,89.57
2023-12-10T16:18:12.658Z,89.88
2023-12-10T16:20:39.995Z,89.63
2023-12-10T16:23:06.476Z,89.83
2023-12-10T16:25:32.975Z,89.80
2023-12-10T16:27:59.535Z,90.55
2023-12-10T16:30:26.579Z,90.80
2023-12-10T16:32:54.439Z,92.12
2023-12-10T16:35:21.218Z,92.48
2023-12-10T16:37:47.689Z,92.65
2023-12-10T16:40:15.268Z,92.24
2023-12-10T16:42:42.033Z,92.85
2023-12-10T16:45:11.074Z,93.80
2023-12-10T16:47:38.100Z,95.33
2023-12-10T16:50:06.767Z,94.71
2023-12-10T16:52:33.674Z,94.71
2023-12-10T16:55:00.509Z,95.08
2023-12-10T16:57:27.496Z,94.30
2023-12-10T16:59:54.313Z,93.99
2023-12-10T17:02:20.849Z,93.48
2023-12-10T17:04:47.495Z,94.94
2023-12-10T17:07:14.126Z,93.87
2023-12-10T17:09:40.686Z,95.48
2023-12-10T17:12:07.497Z,97.65
2023-12-10T17:14:34.019Z,99.11
2023-12-10T17:17:00.613Z,99.69
2023-12-10T17:19:27.312Z,98.99
2023-12-10T17:21:53.999Z,98.97
2023-12-10T17:24:20.500Z,98.95
2023-12-10T17:26:47.095Z,99.57
2023-12-10T17:29:13.591Z,99.79
2023-12-10T17:31:40.127Z,100.00
2023-12-10T17:34:06.767Z,100.00
2023-12-10T17:36:33.417Z,99.90
2023-12-10T17:38:59.909Z,99.98
2023-12-10T17:41:26.695Z,99.79
2023-12-10T17:43:54.522Z,100.00
2023-12-10T17:46:21.133Z,100.00
2023-12-10T17:48:52.027Z,99.60
2023-12-10T17:51:19.125Z,99.32
2023-12-10T17:53:46.162Z,99.84
2023-12-10T17:56:14.595Z,99.02
2023-12-10T17:58:41.933Z,99.21
2023-12-10T18:01:08.744Z,98.93
2023-12-10T18:03:35.474Z,99.18
2023-12-10T18:06:02.519Z,100.00
2023-12-10T18:08:29.094Z,99.26
2023-12-10T18:10:55.703Z,98.86
2023-12-10T18:13:22.501Z,98.75
2023-12-10T18:15:49.098Z,99.52
2023-12-10T18:18:16.209Z,98.99
2023-12-10T18:20:43.600Z,99.49
2023-12-10T18:23:10.323Z,98.72
2023-12-10T18:25:37.368Z,99.12
2023-12-10T18:28:04.477Z,100.00
2023-12-10T18:30:32.187Z,100.00
2023-12-10T18:32:59.158Z,100.00
2023-12-10T18:35:26.327Z,100.00
2023-12-10T18:37:53.133Z,99.95
2023-12-10T18:40:19.826Z,99.45
2023-12-10T18:42:47.133Z,99.72
2023-12-10T18:45:13.775Z,99.36
2023-12-10T18:47:40.811Z,100.00
2023-12-10T18:50:09.278Z,100.00
2023-12-10T18:52:36.177Z,100.00
2023-12-10T18:55:02.821Z,100.00
2023-12-10T18:57:30.205Z,100.00
2023-12-10T18:59:57.155Z,100.00
2023-12-10T19:02:25.024Z,100.00
2023-12-10T19:04:51.856Z,100.00
2023-12-10T19:07:18.609Z,100.00
2023-12-10T19:09:48.888Z,100.00
2023-12-10T19:12:18.758Z,100.00
2023-12-10T19:14:46.928Z,100.00
2023-12-10T19:17:13.773Z,99.28
2023-12-10T19:19:40.978Z,98.90
2023-12-10T19:22:07.764Z,98.99
2023-12-10T19:24:34.808Z,99.14
2023-12-10T19:27:01.400Z,96.93
2023-12-10T19:29:28.137Z,95.94
2023-12-10T19:31:54.723Z,95.64
2023-12-10T19:34:21.471Z,95.92
2023-12-10T19:36:48.102Z,97.50
2023-12-10T19:39:14.681Z,97.29
2023-12-10T19:41:41.267Z,97.30
2023-12-10T19:44:07.900Z,97.33
2023-12-10T19:46:34.486Z,96.70
2023-12-10T19:49:01.069Z,96.87
2023-12-10T19:51:27.635Z,97.17
2023-12-10T19:53:54.332Z,98.15
2023-12-10T19:56:20.938Z,98.33
2023-12-10T19:58:47.486Z,99.01
2023-12-10T20:01:14.507Z,99.54
2023-12-10T20:03:41.228Z,97.40
2023-12-10T20:06:08.617Z,96.36
2023-12-10T20:08:35.391Z,95.60
2023-12-10T20:11:02.288Z,94.48
2023-12-10T20:13:29.494Z,94.17
2023-12-10T20:15:56.431Z,94.54
2023-12-10T20:18:23.746Z,96.14
2023-12-10T20:20:50.803Z,96.50
2023-12-10T20:23:17.776Z,95.52
2023-12-10T20:25:46.047Z,95.11
2023-12-10T20:28:13.376Z,95.92
2023-12-10T20:30:42.916Z,95.80
2023-12-10T20:33:10.202Z,95.30
2023-12-10T20:35:36.939Z,94.86
2023-12-10T20:38:03.513Z,94.91
2023-12-10T20:40:30.168Z,95.03
2023-12-10T20:42:56.827Z,95.31
2023-12-10T20:45:23.377Z,95.00
2023-12-10T20:47:52.038Z,95.65
2023-12-10T20:50:19.961Z,97.03
2023-12-10T20:52:47.585Z,97.40
2023-12-10T20:55:14.871Z,96.16
2023-12-10T20:57:41.560Z,96.35
2023-12-10T21:00:09.604Z,96.57
2023-12-10T21:02:36.311Z,97.21
2023-12-10T21:05:03.249Z,97.63
2023-12-10T21:07:30.272Z,96.42
2023-12-10T21:09:56.968Z,97.17
2023-12-10T21:12:23.499Z,95.66
2023-12-10T21:14:50.850Z,96.17
2023-12-10T21:17:17.673Z,95.16
2023-12-10T21:19:44.889Z,94.92
2023-12-10T21:22:11.637Z,96.10
2023-12-10T21:24:38.203Z,98.12
2023-12-10T21:27:04.995Z,98.74
2023-12-10T21:29:31.505Z,98.55
2023-12-10T21:31:58.032Z,97.74
2023-12-10T21:34:24.573Z,97.92
2023-12-10T21:36:51.199Z,98.86
2023-12-10T21:39:17.909Z,99.79
2023-12-10T21:41:44.540Z,98.48
2023-12-10T21:44:11.158Z,95.25
2023-12-10T21:46:39.267Z,94.89
2023-12-10T21:49:05.980Z,95.20
2023-12-10T21:51:32.651Z,93.45
2023-12-10T21:54:04.272Z,93.37
2023-12-10T21:56:30.895Z,93.24
2023-12-10T21:58:57.351Z,92.12
2023-12-10T22:01:23.961Z,90.80
2023-12-10T22:03:51.616Z,87.76
2023-12-10T22:06:18.516Z,85.04
2023-12-10T22:08:45.104Z,82.06
2023-12-10T22:11:13.886Z,82.54
2023-12-10T22:13:40.336Z,84.96
2023-12-10T22:16:07.268Z,80.90
2023-12-10T22:18:33.998Z,79.23
2023-12-10T22:21:00.756Z,78.89
2023-12-10T22:23:27.220Z,80.22
2023-12-10T22:25:53.695Z,80.89
2023-12-10T22:28:22.296Z,81.73
2023-12-10T22:30:48.872Z,81.21
2023-12-10T22:33:15.613Z,80.79
2023-12-10T22:35:42.166Z,79.94
2023-12-10T22:38:08.688Z,79.20
2023-12-10T22:40:35.226Z,80.17
2023-12-10T22:43:01.854Z,79.90
2023-12-10T22:45:28.405Z,82.43
2023-12-10T22:47:54.999Z,81.98
2023-12-10T22:50:23.883Z,82.48
2023-12-10T22:52:50.588Z,87.88
2023-12-10T22:55:17.089Z,89.61
2023-12-10T22:57:45.333Z,88.02
2023-12-10T23:00:17.972Z,88.94
2023-12-10T23:02:47.172Z,90.58
2023-12-10T23:05:14.020Z,91.64
2023-12-10T23:07:40.587Z,94.42
2023-12-10T23:10:07.433Z,92.97
2023-12-10T23:12:34.364Z,95.31
2023-12-10T23:15:01.379Z,95.90
2023-12-10T23:17:28.234Z,96.92
2023-12-10T23:19:55.593Z,97.58
2023-12-10T23:22:22.728Z,95.33
2023-12-10T23:24:50.003Z,95.45
2023-12-10T23:27:16.832Z,97.30
2023-12-10T23:29:43.514Z,99.97
2023-12-10T23:32:10.165Z,97.77
2023-12-10T23:34:37.065Z,97.16
2023-12-10T23:37:03.693Z,98.76
2023-12-10T23:39:30.314Z,100.00
2023-12-10T23:41:56.767Z,100.00
2023-12-10T23:44:23.307Z,100.00
2023-12-10T23:46:49.834Z,100.00
2023-12-10T23:49:16.435Z,100.00
2023-12-10T23:51:43.318Z,100.00
2023-12-10T23:54:11.362Z,100.00
2023-12-10T23:56:38.165Z,100.00
2023-12-10T23:59:04.761Z,100.00
